ETD957 HKJK-EHAM
Flight info
| Callsign | ETD957 |
|---|---|
| Flight time | N/A |
| Altitude | 34000 |
| Route | ANTUK2D APKUB UQ293 IMPOG DCT SIPKI/N0488F350 UT325 BUN/N0487F340 UG862 ONUDA/N0485F360 UG862 DIR UB730 OUREL/N0475F380 UB730 BOD UM508 TGU UJ36 BSA/N0467F370 UB726 ABSAL/N0470F390 UB726 ZEM/N0469F380 UB16 PECES N853 LUMAS DCT SOFFY DCT MRM DCT MTL DCT ETREK DCT MADOT DCT MOPEM DCT CACHI DCT AVLON DCT OKRIX DCT BRY DCT CLM DCT NURMO DCT SULEX DCT VEKIN DCT ADUTO N873 FERDI/N0402F240 Y18 DENUT |
| Aircraft | B77L/H-SDE1E2E3FGHIJ2J3J4J5M1RWXY/LB1D1 |
Departure
| Time | N/A |
|---|---|
| Airport | Jomo Kenyatta International Airport (HKJK) |
Arrival
| Time | 2026-05-07 18:34 |
|---|---|
| Airport | Amsterdam Airport Schiphol (EHAM) |
| Time | Latitude | Longitude | Altitude | Speed | Heading |
|---|---|---|---|---|---|
| 2026-05-07 18:08 | 50.53552 | 3.37685 | 32740 ft | 416 kts | 21° |
| 2026-05-07 18:09 | 50.56218 | 3.39528 | 32311 ft | 422 kts | 20° |
| 2026-05-07 18:09 | 50.58963 | 3.41380 | 31859 ft | 434 kts | 20° |
| 2026-05-07 18:09 | 50.61755 | 3.43265 | 31392 ft | 436 kts | 21° |
| 2026-05-07 18:09 | 50.64535 | 3.45157 | 30916 ft | 433 kts | 21° |
| 2026-05-07 18:10 | 50.67287 | 3.47045 | 30457 ft | 430 kts | 21° |
| 2026-05-07 18:10 | 50.69983 | 3.48903 | 29996 ft | 426 kts | 21° |
| 2026-05-07 18:10 | 50.72697 | 3.50778 | 29486 ft | 423 kts | 21° |
| 2026-05-07 18:10 | 50.75383 | 3.52638 | 29016 ft | 418 kts | 21° |
| 2026-05-07 18:11 | 50.78068 | 3.54328 | 28529 ft | 413 kts | 17° |
| 2026-05-07 18:11 | 50.79868 | 3.55292 | 28163 ft | 406 kts | 15° |
| 2026-05-07 18:11 | 50.83426 | 3.57078 | 26952 ft | 399 kts | 15° |
| 2026-05-07 18:11 | 50.86072 | 3.58375 | 25971 ft | 397 kts | 15° |
| 2026-05-07 18:12 | 50.88711 | 3.59675 | 25116 ft | 400 kts | 15° |
| 2026-05-07 18:12 | 50.91339 | 3.60984 | 24631 ft | 399 kts | 15° |
| 2026-05-07 18:12 | 50.93980 | 3.62315 | 24178 ft | 397 kts | 15° |
| 2026-05-07 18:12 | 50.96607 | 3.63651 | 23751 ft | 395 kts | 16° |
| 2026-05-07 18:13 | 50.99225 | 3.64990 | 23280 ft | 393 kts | 16° |
| 2026-05-07 18:13 | 51.01814 | 3.66319 | 22814 ft | 389 kts | 16° |
| 2026-05-07 18:13 | 51.04382 | 3.67640 | 22383 ft | 386 kts | 16° |
| 2026-05-07 18:13 | 51.06917 | 3.68946 | 22063 ft | 379 kts | 16° |
| 2026-05-07 18:14 | 51.08568 | 3.69797 | 22065 ft | 377 kts | 16° |
| 2026-05-07 18:14 | 51.11076 | 3.71091 | 22063 ft | 379 kts | 16° |
| 2026-05-07 18:14 | 51.14397 | 3.72805 | 22052 ft | 376 kts | 16° |
| 2026-05-07 18:14 | 51.16880 | 3.74090 | 22052 ft | 374 kts | 16° |
| 2026-05-07 18:15 | 51.18551 | 3.74954 | 22054 ft | 374 kts | 16° |
| 2026-05-07 18:15 | 51.21034 | 3.76241 | 22062 ft | 374 kts | 16° |
| 2026-05-07 18:15 | 51.23510 | 3.77525 | 22065 ft | 374 kts | 16° |
| 2026-05-07 18:15 | 51.25951 | 3.78792 | 22065 ft | 374 kts | 16° |
| 2026-05-07 18:16 | 51.28425 | 3.80079 | 22070 ft | 375 kts | 16° |
| 2026-05-07 18:16 | 51.30913 | 3.81374 | 22070 ft | 375 kts | 16° |
| 2026-05-07 18:16 | 51.33396 | 3.82667 | 22069 ft | 375 kts | 16° |
| 2026-05-07 18:16 | 51.35878 | 3.83963 | 22019 ft | 374 kts | 16° |
| 2026-05-07 18:17 | 51.38344 | 3.85251 | 21680 ft | 371 kts | 17° |
| 2026-05-07 18:17 | 51.40798 | 3.86535 | 21251 ft | 369 kts | 17° |
| 2026-05-07 18:17 | 51.43205 | 3.87796 | 20764 ft | 359 kts | 17° |
| 2026-05-07 18:17 | 51.45571 | 3.89036 | 19919 ft | 355 kts | 17° |
| 2026-05-07 18:18 | 51.47919 | 3.90268 | 19029 ft | 354 kts | 17° |
| 2026-05-07 18:18 | 51.50253 | 3.91494 | 18162 ft | 351 kts | 17° |
| 2026-05-07 18:18 | 51.52563 | 3.92708 | 17264 ft | 347 kts | 17° |
| 2026-05-07 18:18 | 51.54843 | 3.93908 | 16393 ft | 343 kts | 17° |
| 2026-05-07 18:19 | 51.57064 | 3.95078 | 15572 ft | 338 kts | 17° |
| 2026-05-07 18:19 | 51.59293 | 3.96254 | 14760 ft | 334 kts | 17° |
| 2026-05-07 18:19 | 51.61488 | 3.97412 | 13953 ft | 330 kts | 17° |
| 2026-05-07 18:19 | 51.63660 | 3.98559 | 13084 ft | 327 kts | 17° |
| 2026-05-07 18:20 | 51.65808 | 3.99696 | 12247 ft | 323 kts | 17° |
| 2026-05-07 18:20 | 51.67922 | 4.00816 | 11620 ft | 313 kts | 17° |
| 2026-05-07 18:20 | 51.69932 | 4.01883 | 11270 ft | 295 kts | 17° |
| 2026-05-07 18:20 | 51.71847 | 4.02900 | 10932 ft | 284 kts | 17° |
| 2026-05-07 18:21 | 51.73679 | 4.03873 | 10631 ft | 279 kts | 17° |
| 2026-05-07 18:21 | 51.75547 | 4.04865 | 10429 ft | 287 kts | 17° |
| 2026-05-07 18:21 | 51.77456 | 4.05879 | 10301 ft | 288 kts | 17° |
| 2026-05-07 18:21 | 51.79340 | 4.06882 | 10161 ft | 281 kts | 17° |
| 2026-05-07 18:22 | 51.81174 | 4.07860 | 9947 ft | 273 kts | 17° |
| 2026-05-07 18:22 | 51.82378 | 4.08501 | 9627 ft | 274 kts | 17° |
| 2026-05-07 18:22 | 51.84810 | 4.09797 | 9111 ft | 272 kts | 18° |
| 2026-05-07 18:22 | 51.86599 | 4.10752 | 8743 ft | 271 kts | 18° |
| 2026-05-07 18:23 | 51.88384 | 4.11706 | 8413 ft | 269 kts | 18° |
| 2026-05-07 18:23 | 51.90162 | 4.12656 | 8083 ft | 267 kts | 18° |
| 2026-05-07 18:23 | 51.91824 | 4.13816 | 7599 ft | 266 kts | 34° |
| 2026-05-07 18:23 | 51.93280 | 4.15683 | 7219 ft | 265 kts | 41° |
| 2026-05-07 18:24 | 51.94684 | 4.17594 | 6947 ft | 262 kts | 41° |
| 2026-05-07 18:24 | 51.96083 | 4.19487 | 6558 ft | 263 kts | 40° |
| 2026-05-07 18:24 | 51.97483 | 4.21368 | 6285 ft | 259 kts | 40° |
| 2026-05-07 18:24 | 51.98874 | 4.23230 | 5908 ft | 259 kts | 40° |
| 2026-05-07 18:25 | 52.00256 | 4.25075 | 5558 ft | 257 kts | 40° |
| 2026-05-07 18:25 | 52.01610 | 4.26879 | 5502 ft | 246 kts | 40° |
| 2026-05-07 18:25 | 52.02903 | 4.28598 | 5531 ft | 235 kts | 40° |
| 2026-05-07 18:25 | 52.04165 | 4.30279 | 5532 ft | 236 kts | 41° |
| 2026-05-07 18:26 | 52.05405 | 4.31931 | 5545 ft | 248 kts | 40° |
| 2026-05-07 18:26 | 52.06792 | 4.33782 | 5271 ft | 264 kts | 40° |
| 2026-05-07 18:26 | 52.08222 | 4.35683 | 4916 ft | 263 kts | 40° |
| 2026-05-07 18:26 | 52.09617 | 4.37535 | 4603 ft | 256 kts | 40° |
| 2026-05-07 18:27 | 52.10982 | 4.39352 | 4323 ft | 252 kts | 40° |
| 2026-05-07 18:27 | 52.12336 | 4.41161 | 4054 ft | 251 kts | 40° |
| 2026-05-07 18:27 | 52.13663 | 4.42933 | 3788 ft | 248 kts | 40° |
| 2026-05-07 18:27 | 52.14947 | 4.44646 | 3564 ft | 227 kts | 40° |
| 2026-05-07 18:28 | 52.16104 | 4.46188 | 3464 ft | 203 kts | 41° |
| 2026-05-07 18:28 | 52.17140 | 4.47573 | 3389 ft | 186 kts | 40° |
| 2026-05-07 18:28 | 52.18166 | 4.48946 | 3340 ft | 194 kts | 41° |
| 2026-05-07 18:28 | 52.19204 | 4.50335 | 3197 ft | 190 kts | 40° |
| 2026-05-07 18:29 | 52.20200 | 4.51710 | 2974 ft | 183 kts | 47° |
| 2026-05-07 18:29 | 52.20985 | 4.53276 | 2804 ft | 174 kts | 56° |
| 2026-05-07 18:29 | 52.21645 | 4.54878 | 2581 ft | 166 kts | 58° |
| 2026-05-07 18:29 | 52.22256 | 4.56439 | 2378 ft | 159 kts | 58° |
| 2026-05-07 18:30 | 52.22828 | 4.57920 | 2193 ft | 149 kts | 58° |
| 2026-05-07 18:30 | 52.23374 | 4.59340 | 2104 ft | 153 kts | 58° |
| 2026-05-07 18:30 | 52.23960 | 4.60864 | 1864 ft | 157 kts | 58° |
| 2026-05-07 18:30 | 52.24523 | 4.62326 | 1654 ft | 151 kts | 58° |
| 2026-05-07 18:31 | 52.25061 | 4.63723 | 1453 ft | 138 kts | 58° |
| 2026-05-07 18:31 | 52.25551 | 4.64998 | 1279 ft | 127 kts | 57° |
| 2026-05-07 18:31 | 52.26021 | 4.66219 | 1104 ft | 129 kts | 58° |
| 2026-05-07 18:31 | 52.26506 | 4.67480 | 939 ft | 132 kts | 57° |
| 2026-05-07 18:32 | 52.26994 | 4.68745 | 737 ft | 130 kts | 58° |
| 2026-05-07 18:32 | 52.27473 | 4.69993 | 581 ft | 131 kts | 57° |
| 2026-05-07 18:32 | 52.27966 | 4.71278 | 377 ft | 133 kts | 57° |
| 2026-05-07 18:32 | 52.28458 | 4.72531 | 204 ft | 130 kts | 57° |
| 2026-05-07 18:33 | 52.28928 | 4.73764 | 40 ft | 130 kts | 58° |
| 2026-05-07 18:33 | 52.29386 | 4.74955 | 3 ft | 112 kts | 57° |
| 2026-05-07 18:33 | 52.29742 | 4.75881 | 2 ft | 86 kts | 58° |
| 2026-05-07 18:33 | 52.30040 | 4.76643 | 2 ft | 74 kts | 58° |
| 2026-05-07 18:34 | 52.30278 | 4.77276 | 0 ft | 34 kts | 58° |